sensor_id;sensor_type;location;lat;lon;timestamp;pressure;altitude;pressure_sealevel;temperature;humidity
29839;BME280;18669;53.356;-1.464;2023-01-29T00:02:21;101903.72;;;7.44;100.00
29839;BME280;18669;53.356;-1.464;2023-01-29T00:04:47;101909.88;;;7.47;100.00
29839;BME280;18669;53.356;-1.464;2023-01-29T00:07:14;101908.16;;;7.50;100.00
29839;BME280;18669;53.356;-1.464;2023-01-29T00:09:39;101904.84;;;7.65;100.00
29839;BME280;18669;53.356;-1.464;2023-01-29T00:12:06;101894.19;;;7.47;100.00
29839;BME280;18669;53.356;-1.464;2023-01-29T00:14:34;101881.94;;;7.48;100.00
29839;BME280;18669;53.356;-1.464;2023-01-29T00:17:01;101875.75;;;7.41;100.00
29839;BME280;18669;53.356;-1.464;2023-01-29T00:19:28;101881.03;;;7.44;100.00
29839;BME280;18669;53.356;-1.464;2023-01-29T00:21:54;101881.94;;;7.46;100.00
29839;BME280;18669;53.356;-1.464;2023-01-29T00:24:20;101882.75;;;7.41;100.00
29839;BME280;18669;53.356;-1.464;2023-01-29T00:26:48;101882.72;;;7.38;100.00
29839;BME280;18669;53.356;-1.464;2023-01-29T00:29:14;101873.09;;;7.38;100.00
29839;BME280;18669;53.356;-1.464;2023-01-29T00:31:43;101873.22;;;7.47;100.00
29839;BME280;18669;53.356;-1.464;2023-01-29T00:34:09;101872.28;;;7.42;100.00
29839;BME280;18669;53.356;-1.464;2023-01-29T00:36:35;101867.06;;;7.44;100.00
29839;BME280;18669;53.356;-1.464;2023-01-29T00:39:02;101866.31;;;7.53;100.00
29839;BME280;18669;53.356;-1.464;2023-01-29T00:41:36;101861.94;;;7.52;100.00
29839;BME280;18669;53.356;-1.464;2023-01-29T00:44:20;101858.34;;;7.45;100.00
29839;BME280;18669;53.356;-1.464;2023-01-29T00:47:06;101857.53;;;7.49;100.00
29839;BME280;18669;53.356;-1.464;2023-01-29T00:49:50;101847.88;;;7.45;100.00
29839;BME280;18669;53.356;-1.464;2023-01-29T00:52:16;101848.06;;;7.62;100.00
29839;BME280;18669;53.356;-1.464;2023-01-29T00:54:49;101846.19;;;7.49;100.00
29839;BME280;18669;53.356;-1.464;2023-01-29T00:57:15;101844.38;;;7.46;100.00
29839;BME280;18669;53.356;-1.464;2023-01-29T00:59:41;101830.38;;;7.41;100.00
29839;BME280;18669;53.356;-1.464;2023-01-29T01:02:08;101825.16;;;7.41;100.00
29839;BME280;18669;53.356;-1.464;2023-01-29T01:04:53;101830.34;;;7.38;100.00
29839;BME280;18669;53.356;-1.464;2023-01-29T01:07:19;101818.94;;;7.32;100.00
29839;BME280;18669;53.356;-1.464;2023-01-29T01:09:45;101818.03;;;7.30;100.00
29839;BME280;18669;53.356;-1.464;2023-01-29T01:12:30;101811.09;;;7.34;100.00
29839;BME280;18669;53.356;-1.464;2023-01-29T01:14:56;101809.25;;;7.25;100.00
29839;BME280;18669;53.356;-1.464;2023-01-29T01:17:23;101810.19;;;7.32;100.00
29839;BME280;18669;53.356;-1.464;2023-01-29T01:19:49;101799.69;;;7.27;100.00
29839;BME280;18669;53.356;-1.464;2023-01-29T01:22:16;101799.63;;;7.26;100.00
29839;BME280;18669;53.356;-1.464;2023-01-29T01:24:42;101791.94;;;7.37;100.00
29839;BME280;18669;53.356;-1.464;2023-01-29T01:27:08;101783.00;;;7.18;100.00
29839;BME280;18669;53.356;-1.464;2023-01-29T01:29:34;101785.59;;;7.18;100.00
29839;BME280;18669;53.356;-1.464;2023-01-29T01:32:01;101787.28;;;7.14;100.00
29839;BME280;18669;53.356;-1.464;2023-01-29T01:34:27;101783.78;;;7.10;100.00
29839;BME280;18669;53.356;-1.464;2023-01-29T01:36:54;101773.25;;;7.09;100.00
29839;BME280;18669;53.356;-1.464;2023-01-29T01:39:24;101786.34;;;7.07;100.00
29839;BME280;18669;53.356;-1.464;2023-01-29T01:41:52;101786.34;;;7.07;100.00
29839;BME280;18669;53.356;-1.464;2023-01-29T01:47:16;101783.63;;;6.99;100.00
29839;BME280;18669;53.356;-1.464;2023-01-29T01:49:44;101787.88;;;6.93;100.00
29839;BME280;18669;53.356;-1.464;2023-01-29T01:52:12;101787.03;;;6.92;100.00
29839;BME280;18669;53.356;-1.464;2023-01-29T01:54:39;101782.53;;;6.82;100.00
29839;BME280;18669;53.356;-1.464;2023-01-29T01:57:09;101773.84;;;6.86;100.00
29839;BME280;18669;53.356;-1.464;2023-01-29T01:59:51;101788.75;;;6.90;100.00
29839;BME280;18669;53.356;-1.464;2023-01-29T02:02:18;101783.22;;;6.70;100.00
29839;BME280;18669;53.356;-1.464;2023-01-29T02:05:03;101779.72;;;6.68;100.00
29839;BME280;18669;53.356;-1.464;2023-01-29T02:07:49;101784.22;;;6.78;100.00
29839;BME280;18669;53.356;-1.464;2023-01-29T02:10:46;101782.53;;;6.82;100.00
29839;BME280;18669;53.356;-1.464;2023-01-29T02:13:14;101777.06;;;6.65;100.00
29839;BME280;18669;53.356;-1.464;2023-01-29T02:15:44;101764.78;;;6.61;100.00
29839;BME280;18669;53.356;-1.464;2023-01-29T02:18:15;101768.34;;;6.66;100.00
29839;BME280;18669;53.356;-1.464;2023-01-29T02:20:47;101766.63;;;6.68;100.00
29839;BME280;18669;53.356;-1.464;2023-01-29T02:23:31;101771.97;;;6.76;100.00
29839;BME280;18669;53.356;-1.464;2023-01-29T02:29:06;101755.22;;;6.61;100.00
29839;BME280;18669;53.356;-1.464;2023-01-29T02:32:18;101753.41;;;6.57;100.00
29839;BME280;18669;53.356;-1.464;2023-01-29T02:37:56;101745.63;;;6.62;100.00
29839;BME280;18669;53.356;-1.464;2023-01-29T02:46:01;101743.09;;;6.68;100.00
29839;BME280;18669;53.356;-1.464;2023-01-29T02:51:19;101742.13;;;6.60;100.00
29839;BME280;18669;53.356;-1.464;2023-01-29T02:56:34;101737.72;;;6.57;100.00
29839;BME280;18669;53.356;-1.464;2023-01-29T02:59:07;101732.50;;;6.57;100.00
29839;BME280;18669;53.356;-1.464;2023-01-29T03:01:45;101725.59;;;6.62;100.00
29839;BME280;18669;53.356;-1.464;2023-01-29T03:04:18;101711.63;;;6.62;100.00
29839;BME280;18669;53.356;-1.464;2023-01-29T03:06:55;101708.22;;;6.66;100.00
29839;BME280;18669;53.356;-1.464;2023-01-29T03:09:32;101701.19;;;6.62;100.00
29839;BME280;18669;53.356;-1.464;2023-01-29T03:12:25;101717.00;;;6.71;100.00
29839;BME280;18669;53.356;-1.464;2023-01-29T03:15:02;101714.28;;;6.63;100.00
29839;BME280;18669;53.356;-1.464;2023-01-29T03:17:52;101709.16;;;6.69;100.00
29839;BME280;18669;53.356;-1.464;2023-01-29T03:20:25;101712.66;;;6.73;100.00
29839;BME280;18669;53.356;-1.464;2023-01-29T03:22:57;101711.75;;;6.71;100.00
29839;BME280;18669;53.356;-1.464;2023-01-29T03:25:27;101704.72;;;6.67;100.00
29839;BME280;18669;53.356;-1.464;2023-01-29T03:28:15;101704.88;;;6.76;100.00
29839;BME280;18669;53.356;-1.464;2023-01-29T03:31:06;101710.91;;;6.72;100.00
29839;BME280;18669;53.356;-1.464;2023-01-29T03:34:22;101707.47;;;6.76;100.00
29839;BME280;18669;53.356;-1.464;2023-01-29T03:37:20;101710.00;;;6.71;100.00
29839;BME280;18669;53.356;-1.464;2023-01-29T03:39:47;101711.59;;;6.59;100.00
29839;BME280;18669;53.356;-1.464;2023-01-29T03:42:26;101703.06;;;6.72;100.00
29839;BME280;18669;53.356;-1.464;2023-01-29T03:50:57;101683.84;;;6.70;100.00
29839;BME280;18669;53.356;-1.464;2023-01-29T03:53:30;101683.00;;;6.71;100.00
29839;BME280;18669;53.356;-1.464;2023-01-29T03:56:06;101677.59;;;6.57;100.00
29839;BME280;18669;53.356;-1.464;2023-01-29T03:58:50;101676.91;;;6.72;100.00
29839;BME280;18669;53.356;-1.464;2023-01-29T04:01:24;101670.78;;;6.68;100.00
29839;BME280;18669;53.356;-1.464;2023-01-29T04:04:23;101671.69;;;6.72;100.00
29839;BME280;18669;53.356;-1.464;2023-01-29T04:06:51;101665.41;;;6.59;100.00
29839;BME280;18669;53.356;-1.464;2023-01-29T04:09:26;101661.06;;;6.58;100.00
29839;BME280;18669;53.356;-1.464;2023-01-29T04:12:03;101659.41;;;6.68;100.00
29839;BME280;18669;53.356;-1.464;2023-01-29T04:14:30;101638.47;;;6.65;100.00
29839;BME280;18669;53.356;-1.464;2023-01-29T04:17:00;101649.03;;;6.76;100.00
29839;BME280;18669;53.356;-1.464;2023-01-29T04:19:28;101638.53;;;6.69;100.00
29839;BME280;18669;53.356;-1.464;2023-01-29T04:22:06;101644.78;;;6.84;100.00
29839;BME280;18669;53.356;-1.464;2023-01-29T04:24:34;101642.94;;;6.75;100.00
29839;BME280;18669;53.356;-1.464;2023-01-29T04:35:26;101625.69;;;6.93;100.00
29839;BME280;18669;53.356;-1.464;2023-01-29T04:38:11;101621.31;;;6.89;100.00
29839;BME280;18669;53.356;-1.464;2023-01-29T04:40:57;101618.72;;;6.93;100.00
29839;BME280;18669;53.356;-1.464;2023-01-29T04:43:37;101606.50;;;6.94;100.00
29839;BME280;18669;53.356;-1.464;2023-01-29T04:46:20;101602.03;;;6.80;100.00
29839;BME280;18669;53.356;-1.464;2023-01-29T04:51:53;101601.31;;;6.95;100.00
29839;BME280;18669;53.356;-1.464;2023-01-29T04:57:32;101586.47;;;6.94;100.00
29839;BME280;18669;53.356;-1.464;2023-01-29T05:00:09;101590.09;;;7.06;100.00
29839;BME280;18669;53.356;-1.464;2023-01-29T05:02:40;101586.53;;;7.00;100.00
29839;BME280;18669;53.356;-1.464;2023-01-29T05:05:10;101583.03;;;6.98;100.00
29839;BME280;18669;53.356;-1.464;2023-01-29T05:07:37;101586.47;;;6.94;100.00
29839;BME280;18669;53.356;-1.464;2023-01-29T05:10:07;101582.19;;;6.99;100.00
29839;BME280;18669;53.356;-1.464;2023-01-29T05:12:35;101581.28;;;6.97;100.00
29839;BME280;18669;53.356;-1.464;2023-01-29T05:15:04;101574.31;;;6.99;100.00
29839;BME280;18669;53.356;-1.464;2023-01-29T05:17:33;101573.34;;;6.90;100.00
29839;BME280;18669;53.356;-1.464;2023-01-29T05:19:59;101575.97;;;6.91;100.00
29839;BME280;18669;53.356;-1.464;2023-01-29T05:22:25;101577.78;;;6.97;100.00
29839;BME280;18669;53.356;-1.464;2023-01-29T05:24:51;101572.50;;;6.92;100.00
29839;BME280;18669;53.356;-1.464;2023-01-29T05:27:27;101576.13;;;7.05;100.00
29839;BME280;18669;53.356;-1.464;2023-01-29T05:30:13;101564.66;;;6.94;100.00
29839;BME280;18669;53.356;-1.464;2023-01-29T05:32:39;101562.03;;;6.92;100.00
29839;BME280;18669;53.356;-1.464;2023-01-29T05:35:06;101555.03;;;6.90;100.00
29839;BME280;18669;53.356;-1.464;2023-01-29T05:37:32;101550.69;;;6.89;100.00
29839;BME280;18669;53.356;-1.464;2023-01-29T05:39:58;101557.63;;;6.90;100.00
29839;BME280;18669;53.356;-1.464;2023-01-29T05:42:25;101548.06;;;6.90;100.00
29839;BME280;18669;53.356;-1.464;2023-01-29T05:44:51;101556.81;;;6.92;100.00
29839;BME280;18669;53.356;-1.464;2023-01-29T05:47:19;101549.88;;;6.97;100.00
29839;BME280;18669;53.356;-1.464;2023-01-29T05:49:45;101547.19;;;6.88;100.00
29839;BME280;18669;53.356;-1.464;2023-01-29T05:52:11;101544.56;;;6.86;100.00
29839;BME280;18669;53.356;-1.464;2023-01-29T05:54:37;101541.91;;;6.85;100.00
29839;BME280;18669;53.356;-1.464;2023-01-29T05:57:03;101527.97;;;6.86;100.00
29839;BME280;18669;53.356;-1.464;2023-01-29T05:59:29;101532.31;;;6.84;100.00
29839;BME280;18669;53.356;-1.464;2023-01-29T06:01:56;101533.34;;;7.01;100.00
29839;BME280;18669;53.356;-1.464;2023-01-29T06:04:22;101523.59;;;6.85;100.00
29839;BME280;18669;53.356;-1.464;2023-01-29T06:06:48;101528.78;;;6.79;100.00
29839;BME280;18669;53.356;-1.464;2023-01-29T06:09:14;101516.59;;;6.81;100.00
29839;BME280;18669;53.356;-1.464;2023-01-29T06:11:40;101515.72;;;6.82;100.00
29839;BME280;18669;53.356;-1.464;2023-01-29T06:14:06;101516.63;;;6.84;100.00
29839;BME280;18669;53.356;-1.464;2023-01-29T06:16:33;101514.91;;;6.84;100.00
29839;BME280;18669;53.356;-1.464;2023-01-29T06:18:59;101519.22;;;6.84;100.00
29839;BME280;18669;53.356;-1.464;2023-01-29T06:21:25;101516.59;;;6.81;100.00
29839;BME280;18669;53.356;-1.464;2023-01-29T06:23:52;101512.31;;;6.89;100.00
29839;BME280;18669;53.356;-1.464;2023-01-29T06:26:18;101515.78;;;6.86;100.00
29839;BME280;18669;53.356;-1.464;2023-01-29T06:28:47;101516.75;;;6.98;100.00
29839;BME280;18669;53.356;-1.464;2023-01-29T06:31:14;101511.44;;;6.89;100.00
29839;BME280;18669;53.356;-1.464;2023-01-29T06:33:40;101515.78;;;6.90;100.00
29839;BME280;18669;53.356;-1.464;2023-01-29T06:36:06;101515.78;;;6.86;100.00
29839;BME280;18669;53.356;-1.464;2023-01-29T06:38:32;101520.31;;;7.06;100.00
29839;BME280;18669;53.356;-1.464;2023-01-29T06:40:58;101509.66;;;6.86;100.00
29839;BME280;18669;53.356;-1.464;2023-01-29T06:43:24;101512.25;;;6.83;100.00
29839;BME280;18669;53.356;-1.464;2023-01-29T06:45:55;101515.78;;;6.88;100.00
29839;BME280;18669;53.356;-1.464;2023-01-29T06:48:23;101504.41;;;6.81;100.00
29839;BME280;18669;53.356;-1.464;2023-01-29T06:50:50;101505.19;;;6.76;100.00
29839;BME280;18669;53.356;-1.464;2023-01-29T06:53:16;101500.88;;;6.76;100.00
29839;BME280;18669;53.356;-1.464;2023-01-29T06:55:50;101507.03;;;6.86;100.00
29839;BME280;18669;53.356;-1.464;2023-01-29T06:58:19;101505.22;;;6.77;100.00
29839;BME280;18669;53.356;-1.464;2023-01-29T07:00:45;101504.22;;;6.63;100.00
29839;BME280;18669;53.356;-1.464;2023-01-29T07:03:11;101493.66;;;6.52;100.00
29839;BME280;18669;53.356;-1.464;2023-01-29T07:05:37;101491.88;;;6.48;100.00
29839;BME280;18669;53.356;-1.464;2023-01-29T07:08:04;101480.44;;;6.38;100.00
29839;BME280;18669;53.356;-1.464;2023-01-29T07:10:30;101483.94;;;6.41;100.00
29839;BME280;18669;53.356;-1.464;2023-01-29T07:12:58;101476.06;;;6.35;100.00
29839;BME280;18669;53.356;-1.464;2023-01-29T07:15:24;101475.09;;;6.27;100.00
29839;BME280;18669;53.356;-1.464;2023-01-29T07:18:00;101471.63;;;6.28;100.00
29839;BME280;18669;53.356;-1.464;2023-01-29T07:20:28;101473.25;;;6.18;100.00
29839;BME280;18669;53.356;-1.464;2023-01-29T07:22:56;101467.03;;;6.07;100.00
29839;BME280;18669;53.356;-1.464;2023-01-29T07:25:23;101465.22;;;6.01;100.00
29839;BME280;18669;53.356;-1.464;2023-01-29T07:27:50;101470.31;;;5.92;100.00
29839;BME280;18669;53.356;-1.464;2023-01-29T07:30:16;101466.03;;;5.97;100.00
29839;BME280;18669;53.356;-1.464;2023-01-29T07:32:42;101471.94;;;5.82;100.00
29839;BME280;18669;53.356;-1.464;2023-01-29T07:35:09;101476.22;;;5.78;100.00
29839;BME280;18669;53.356;-1.464;2023-01-29T07:37:35;101483.97;;;5.71;100.00
29839;BME280;18669;53.356;-1.464;2023-01-29T07:40:02;101486.63;;;5.74;100.00
29839;BME280;18669;53.356;-1.464;2023-01-29T07:42:30;101488.31;;;5.70;100.00
29839;BME280;18669;53.356;-1.464;2023-01-29T07:44:56;101492.66;;;5.71;100.00
29839;BME280;18669;53.356;-1.464;2023-01-29T07:47:22;101491.13;;;5.87;100.00
29839;BME280;18669;53.356;-1.464;2023-01-29T07:49:49;101500.69;;;5.83;100.00
29839;BME280;18669;53.356;-1.464;2023-01-29T07:52:15;101484.19;;;5.89;100.00
29839;BME280;18669;53.356;-1.464;2023-01-29T07:54:41;101481.63;;;5.91;100.00
29839;BME280;18669;53.356;-1.464;2023-01-29T07:57:07;101462.38;;;5.84;100.00
29839;BME280;18669;53.356;-1.464;2023-01-29T07:59:33;101468.44;;;5.83;100.00
29839;BME280;18669;53.356;-1.464;2023-01-29T08:01:59;101457.91;;;5.74;100.00
29839;BME280;18669;53.356;-1.464;2023-01-29T08:04:25;101468.34;;;5.75;100.00
29839;BME280;18669;53.356;-1.464;2023-01-29T08:06:51;101457.09;;;5.78;100.00
29839;BME280;18669;53.356;-1.464;2023-01-29T08:09:17;101458.06;;;5.88;100.00
29839;BME280;18669;53.356;-1.464;2023-01-29T08:11:44;101458.13;;;5.92;100.00
29839;BME280;18669;53.356;-1.464;2023-01-29T08:14:10;101460.78;;;5.95;100.00
29839;BME280;18669;53.356;-1.464;2023-01-29T08:16:36;101470.41;;;6.00;100.00
29839;BME280;18669;53.356;-1.464;2023-01-29T08:19:02;101448.56;;;5.93;100.00
29839;BME280;18669;53.356;-1.464;2023-01-29T08:21:28;101452.31;;;6.12;100.00
29839;BME280;18669;53.356;-1.464;2023-01-29T08:23:55;101446.06;;;6.02;100.00
29839;BME280;18669;53.356;-1.464;2023-01-29T08:26:21;101447.91;;;6.08;100.00
29839;BME280;18669;53.356;-1.464;2023-01-29T08:28:47;101423.56;;;6.12;100.00
29839;BME280;18669;53.356;-1.464;2023-01-29T08:31:17;101429.72;;;6.19;100.00
29839;BME280;18669;53.356;-1.464;2023-01-29T08:33:46;101430.56;;;6.16;100.00
29839;BME280;18669;53.356;-1.464;2023-01-29T08:36:12;101434.09;;;6.21;100.00
29839;BME280;18669;53.356;-1.464;2023-01-29T08:38:38;101430.78;;;6.39;100.00
29839;BME280;18669;53.356;-1.464;2023-01-29T08:41:05;101418.47;;;6.27;100.00
29839;BME280;18669;53.356;-1.464;2023-01-29T08:43:31;101411.53;;;6.28;100.00
29839;BME280;18669;53.356;-1.464;2023-01-29T08:45:58;101428.06;;;6.27;100.00
29839;BME280;18669;53.356;-1.464;2023-01-29T08:48:24;101420.22;;;6.29;100.00
29839;BME280;18669;53.356;-1.464;2023-01-29T08:50:50;101422.00;;;6.33;100.00
29839;BME280;18669;53.356;-1.464;2023-01-29T08:53:16;101418.47;;;6.26;100.00
29839;BME280;18669;53.356;-1.464;2023-01-29T08:55:44;101430.75;;;6.36;100.00
29839;BME280;18669;53.356;-1.464;2023-01-29T08:58:11;101419.47;;;6.39;100.00
29839;BME280;18669;53.356;-1.464;2023-01-29T09:00:37;101414.34;;;6.50;100.00
29839;BME280;18669;53.356;-1.464;2023-01-29T09:03:03;101417.72;;;6.39;100.00
29839;BME280;18669;53.356;-1.464;2023-01-29T09:05:30;101408.91;;;6.28;100.00
29839;BME280;18669;53.356;-1.464;2023-01-29T09:07:56;101415.97;;;6.37;100.00
29839;BME280;18669;53.356;-1.464;2023-01-29T09:10:22;101415.09;;;6.38;100.00
29839;BME280;18669;53.356;-1.464;2023-01-29T09:12:48;101417.00;;;6.57;100.00
29839;BME280;18669;53.356;-1.464;2023-01-29T09:15:14;101410.84;;;6.51;100.00
29839;BME280;18669;53.356;-1.464;2023-01-29T09:17:41;101412.72;;;6.66;100.00
29839;BME280;18669;53.356;-1.464;2023-01-29T09:20:08;101407.56;;;6.70;100.00
29839;BME280;18669;53.356;-1.464;2023-01-29T09:22:36;101408.50;;;6.80;100.00
29839;BME280;18669;53.356;-1.464;2023-01-29T09:25:02;101420.91;;;7.09;100.00
29839;BME280;18669;53.356;-1.464;2023-01-29T09:27:28;101410.34;;;6.97;100.00
29839;BME280;18669;53.356;-1.464;2023-01-29T09:29:55;101402.50;;;7.00;100.00
29839;BME280;18669;53.356;-1.464;2023-01-29T09:32:21;101404.25;;;7.01;100.00
29839;BME280;18669;53.356;-1.464;2023-01-29T09:34:47;101388.63;;;7.12;100.00
29839;BME280;18669;53.356;-1.464;2023-01-29T09:37:12;101382.53;;;7.11;100.00
29839;BME280;18669;53.356;-1.464;2023-01-29T09:39:38;101367.81;;;7.32;100.00
29839;BME280;18669;53.356;-1.464;2023-01-29T09:44:54;101375.81;;;7.77;100.00
29839;BME280;18669;53.356;-1.464;2023-01-29T09:47:24;101374.94;;;7.66;100.00
29839;BME280;18669;53.356;-1.464;2023-01-29T09:49:55;101367.97;;;7.75;100.00
29839;BME280;18669;53.356;-1.464;2023-01-29T09:52:29;101360.97;;;7.79;100.00
29839;BME280;18669;53.356;-1.464;2023-01-29T09:57:39;101364.56;;;8.09;100.00
29839;BME280;18669;53.356;-1.464;2023-01-29T10:00:14;101365.44;;;8.08;100.00
29839;BME280;18669;53.356;-1.464;2023-01-29T10:02:58;101349.75;;;8.28;100.00
29839;BME280;18669;53.356;-1.464;2023-01-29T10:11:09;101361.13;;;8.58;100.00
29839;BME280;18669;53.356;-1.464;2023-01-29T10:13:54;101375.97;;;8.83;100.00
29839;BME280;18669;53.356;-1.464;2023-01-29T10:16:30;101350.56;;;9.03;100.00
29839;BME280;18669;53.356;-1.464;2023-01-29T10:21:58;101336.09;;;9.97;97.80
29839;BME280;18669;53.356;-1.464;2023-01-29T10:24:36;101343.69;;;10.42;90.58
29839;BME280;18669;53.356;-1.464;2023-01-29T10:27:15;101343.22;;;9.86;92.81
29839;BME280;18669;53.356;-1.464;2023-01-29T10:29:42;101338.97;;;9.59;96.21
29839;BME280;18669;53.356;-1.464;2023-01-29T10:32:22;101333.78;;;9.37;100.00
29839;BME280;18669;53.356;-1.464;2023-01-29T10:35:03;101329.53;;;9.14;100.00
29839;BME280;18669;53.356;-1.464;2023-01-29T10:37:39;101351.47;;;8.79;100.00
29839;BME280;18669;53.356;-1.464;2023-01-29T10:40:19;101335.75;;;8.66;100.00
29839;BME280;18669;53.356;-1.464;2023-01-29T10:43:02;101338.34;;;8.76;100.00
29839;BME280;18669;53.356;-1.464;2023-01-29T10:45:38;101330.50;;;8.35;100.00
29839;BME280;18669;53.356;-1.464;2023-01-29T10:58:59;101301.59;;;8.93;100.00
29839;BME280;18669;53.356;-1.464;2023-01-29T11:01:26;101298.16;;;8.75;100.00
29839;BME280;18669;53.356;-1.464;2023-01-29T11:04:00;101298.16;;;8.78;100.00
29839;BME280;18669;53.356;-1.464;2023-01-29T11:06:32;101292.88;;;8.82;100.00
29839;BME280;18669;53.356;-1.464;2023-01-29T11:09:06;101297.25;;;8.84;100.00
29839;BME280;18669;53.356;-1.464;2023-01-29T11:11:45;101286.78;;;8.79;100.00
29839;BME280;18669;53.356;-1.464;2023-01-29T11:17:02;101295.53;;;8.41;100.00
29839;BME280;18669;53.356;-1.464;2023-01-29T11:19:40;101288.53;;;8.35;100.00
29839;BME280;18669;53.356;-1.464;2023-01-29T11:22:16;101286.81;;;8.25;100.00
29839;BME280;18669;53.356;-1.464;2023-01-29T11:24:42;101272.84;;;8.09;100.00
29839;BME280;18669;53.356;-1.464;2023-01-29T11:27:21;101279.81;;;8.16;100.00
29839;BME280;18669;53.356;-1.464;2023-01-29T11:29:48;101289.44;;;8.08;100.00
29839;BME280;18669;53.356;-1.464;2023-01-29T11:37:43;101295.53;;;8.23;100.00
29839;BME280;18669;53.356;-1.464;2023-01-29T11:42:45;101292.06;;;8.36;100.00
29839;BME280;18669;53.356;-1.464;2023-01-29T11:45:29;101285.91;;;8.42;100.00
29839;BME280;18669;53.356;-1.464;2023-01-29T11:47:59;101287.69;;;8.26;100.00
29839;BME280;18669;53.356;-1.464;2023-01-29T11:50:31;101254.50;;;8.09;100.00
29839;BME280;18669;53.356;-1.464;2023-01-29T11:52:58;101253.63;;;8.07;100.00
29839;BME280;18669;53.356;-1.464;2023-01-29T11:55:27;101243.97;;;8.35;100.00
29839;BME280;18669;53.356;-1.464;2023-01-29T11:58:05;101248.19;;;9.02;100.00
29839;BME280;18669;53.356;-1.464;2023-01-29T12:00:34;101260.09;;;9.66;100.00
29839;BME280;18669;53.356;-1.464;2023-01-29T12:03:14;101246.97;;;9.63;100.00
29839;BME280;18669;53.356;-1.464;2023-01-29T12:05:53;101238.69;;;10.19;100.00
29839;BME280;18669;53.356;-1.464;2023-01-29T12:08:21;101259.97;;;10.83;94.59
29839;BME280;18669;53.356;-1.464;2023-01-29T12:10:49;101255.19;;;11.16;88.71
29839;BME280;18669;53.356;-1.464;2023-01-29T12:13:24;101242.94;;;11.75;84.38
29839;BME280;18669;53.356;-1.464;2023-01-29T12:16:13;101255.41;;;11.63;79.13
29839;BME280;18669;53.356;-1.464;2023-01-29T12:18:43;101258.91;;;10.97;83.19
29839;BME280;18669;53.356;-1.464;2023-01-29T12:21:28;101236.03;;;10.21;93.89
29839;BME280;18669;53.356;-1.464;2023-01-29T12:26:41;101234.84;;;9.50;100.00
29839;BME280;18669;53.356;-1.464;2023-01-29T12:32:04;101236.69;;;9.29;100.00
29839;BME280;18669;53.356;-1.464;2023-01-29T12:34:47;101226.22;;;9.28;100.00
29839;BME280;18669;53.356;-1.464;2023-01-29T12:39:48;101197.63;;;10.03;100.00
29839;BME280;18669;53.356;-1.464;2023-01-29T12:42:18;101213.06;;;10.38;100.00
29839;BME280;18669;53.356;-1.464;2023-01-29T12:45:21;101202.94;;;10.81;97.49
29839;BME280;18669;53.356;-1.464;2023-01-29T12:47:54;101200.84;;;11.11;91.60
29839;BME280;18669;53.356;-1.464;2023-01-29T12:50:27;101206.41;;;10.86;92.32
29839;BME280;18669;53.356;-1.464;2023-01-29T12:57:57;101194.84;;;10.17;100.00
29839;BME280;18669;53.356;-1.464;2023-01-29T13:00:27;101201.75;;;10.30;100.00
29839;BME280;18669;53.356;-1.464;2023-01-29T13:05:38;101193.84;;;10.28;100.00
29839;BME280;18669;53.356;-1.464;2023-01-29T13:11:18;101192.22;;;10.17;100.00
29839;BME280;18669;53.356;-1.464;2023-01-29T13:13:54;101182.81;;;9.94;100.00
29839;BME280;18669;53.356;-1.464;2023-01-29T13:16:24;101190.88;;;9.72;100.00
29839;BME280;18669;53.356;-1.464;2023-01-29T13:19:01;101184.81;;;9.64;100.00
29839;BME280;18669;53.356;-1.464;2023-01-29T13:21:39;101167.53;;;9.33;100.00
29839;BME280;18669;53.356;-1.464;2023-01-29T13:24:10;101163.22;;;9.20;100.00
29839;BME280;18669;53.356;-1.464;2023-01-29T13:26:38;101170.28;;;9.15;100.00
29839;BME280;18669;53.356;-1.464;2023-01-29T13:29:05;101159.94;;;8.79;100.00
29839;BME280;18669;53.356;-1.464;2023-01-29T13:31:32;101169.56;;;8.82;100.00
29839;BME280;18669;53.356;-1.464;2023-01-29T13:36:29;101155.53;;;8.89;100.00
29839;BME280;18669;53.356;-1.464;2023-01-29T13:39:13;101152.88;;;8.97;100.00
29839;BME280;18669;53.356;-1.464;2023-01-29T13:41:42;101152.97;;;8.83;100.00
29839;BME280;18669;53.356;-1.464;2023-01-29T13:44:24;101143.19;;;9.09;100.00
29839;BME280;18669;53.356;-1.464;2023-01-29T13:47:10;101144.91;;;9.12;100.00
29839;BME280;18669;53.356;-1.464;2023-01-29T13:50:06;101142.91;;;9.50;100.00
29839;BME280;18669;53.356;-1.464;2023-01-29T13:52:44;101127.88;;;9.64;100.00
29839;BME280;18669;53.356;-1.464;2023-01-29T14:10:41;101116.88;;;9.17;100.00
29839;BME280;18669;53.356;-1.464;2023-01-29T14:15:46;101096.75;;;9.13;100.00
29839;BME280;18669;53.356;-1.464;2023-01-29T14:18:33;101088.06;;;9.08;100.00
29839;BME280;18669;53.356;-1.464;2023-01-29T14:21:16;101082.78;;;9.13;100.00
29839;BME280;18669;53.356;-1.464;2023-01-29T14:23:50;101080.13;;;9.17;100.00
29839;BME280;18669;53.356;-1.464;2023-01-29T14:29:02;101060.03;;;9.15;100.00
29839;BME280;18669;53.356;-1.464;2023-01-29T14:31:46;101066.91;;;9.28;100.00
29839;BME280;18669;53.356;-1.464;2023-01-29T14:36:50;101046.00;;;9.14;100.00
29839;BME280;18669;53.356;-1.464;2023-01-29T14:39:26;101028.50;;;9.18;100.00
29839;BME280;18669;53.356;-1.464;2023-01-29T14:41:53;101031.09;;;9.19;100.00
29839;BME280;18669;53.356;-1.464;2023-01-29T14:44:59;101041.56;;;9.25;100.00
29839;BME280;18669;53.356;-1.464;2023-01-29T14:50:00;101039.91;;;9.09;100.00
29839;BME280;18669;53.356;-1.464;2023-01-29T14:52:41;101046.91;;;9.10;100.00
29839;BME280;18669;53.356;-1.464;2023-01-29T14:55:17;101036.47;;;9.04;100.00
29839;BME280;18669;53.356;-1.464;2023-01-29T14:57:47;101032.13;;;9.01;100.00
29839;BME280;18669;53.356;-1.464;2023-01-29T15:00:20;101033.03;;;8.97;100.00
29839;BME280;18669;53.356;-1.464;2023-01-29T15:02:50;101023.53;;;8.76;100.00
29839;BME280;18669;53.356;-1.464;2023-01-29T15:05:23;101020.06;;;8.71;100.00
29839;BME280;18669;53.356;-1.464;2023-01-29T15:08:02;101020.97;;;8.71;100.00